createdAt,value
2018-06-30T00:02:27.096Z,10.43
2018-06-30T00:04:55.661Z,10.50
2018-06-30T00:07:24.302Z,9.53
2018-06-30T00:09:53.019Z,11.50
2018-06-30T00:12:21.843Z,11.77
2018-06-30T00:14:51.483Z,10.80
2018-06-30T00:17:20.112Z,11.10
2018-06-30T00:19:49.021Z,11.07
2018-06-30T00:22:17.620Z,11.47
2018-06-30T00:24:46.577Z,10.10
2018-06-30T00:27:20.239Z,10.47
2018-06-30T00:29:49.143Z,11.10
2018-06-30T00:32:17.687Z,11.13
2018-06-30T00:34:46.552Z,11.80
2018-06-30T00:37:15.302Z,10.03
2018-06-30T00:39:43.943Z,11.37
2018-06-30T00:42:12.433Z,11.73
2018-06-30T00:44:41.201Z,11.10
2018-06-30T00:47:09.808Z,11.70
2018-06-30T00:49:38.327Z,10.83
2018-06-30T00:52:06.638Z,11.23
2018-06-30T00:54:36.479Z,10.40
2018-06-30T00:57:05.163Z,10.90
2018-06-30T00:59:33.800Z,10.67
2018-06-30T01:02:02.335Z,11.30
2018-06-30T01:04:30.871Z,10.70
2018-06-30T01:06:59.416Z,10.87
2018-06-30T01:09:27.928Z,10.40
2018-06-30T01:11:56.418Z,10.07
2018-06-30T01:14:24.918Z,10.97
2018-06-30T01:16:53.633Z,10.57
2018-06-30T01:19:22.666Z,10.17
2018-06-30T01:21:51.208Z,12.30
2018-06-30T01:24:19.751Z,11.50
2018-06-30T01:26:48.302Z,10.33
2018-06-30T01:29:16.833Z,11.90
2018-06-30T01:31:45.641Z,10.83
2018-06-30T01:34:14.151Z,11.47
2018-06-30T01:36:42.720Z,10.40
2018-06-30T01:39:12.383Z,11.50
2018-06-30T01:41:41.540Z,11.57
2018-06-30T01:44:10.079Z,13.80
2018-06-30T01:46:38.626Z,12.00
2018-06-30T01:49:07.160Z,12.93
2018-06-30T01:51:35.688Z,12.57
2018-06-30T01:54:04.257Z,11.60
2018-06-30T01:56:32.756Z,13.23
2018-06-30T01:59:01.541Z,14.03
2018-06-30T02:01:30.248Z,13.20
2018-06-30T02:03:58.764Z,13.67
2018-06-30T02:06:27.347Z,11.43
2018-06-30T02:08:55.846Z,13.77
2018-06-30T02:11:24.620Z,14.53
2018-06-30T02:13:53.915Z,11.37
2018-06-30T02:16:22.105Z,13.73
2018-06-30T02:18:50.630Z,13.63
2018-06-30T02:21:19.102Z,11.60
2018-06-30T02:23:47.797Z,13.10
2018-06-30T02:26:16.291Z,12.00
2018-06-30T02:28:44.830Z,13.13
2018-06-30T02:31:13.397Z,13.37
2018-06-30T02:33:41.902Z,13.97
2018-06-30T02:36:10.454Z,12.23
2018-06-30T02:38:38.959Z,14.63
2018-06-30T02:41:07.665Z,12.20
2018-06-30T02:43:36.166Z,13.77
2018-06-30T02:46:04.836Z,12.93
2018-06-30T02:48:33.287Z,12.67
2018-06-30T02:51:01.783Z,15.57
2018-06-30T02:53:29.974Z,13.40
2018-06-30T02:55:58.602Z,13.47
2018-06-30T02:58:27.109Z,13.23
2018-06-30T03:00:55.584Z,12.17
2018-06-30T03:03:24.092Z,12.70
2018-06-30T03:05:52.566Z,13.13
2018-06-30T03:08:21.302Z,13.93
2018-06-30T03:10:49.817Z,13.27
2018-06-30T03:13:18.357Z,14.43
2018-06-30T03:15:46.854Z,13.73
2018-06-30T03:18:15.337Z,14.73
2018-06-30T03:20:43.834Z,13.17
2018-06-30T03:23:12.308Z,14.37
2018-06-30T03:25:40.817Z,14.83
2018-06-30T03:28:09.052Z,12.60
2018-06-30T03:30:38.108Z,15.70
2018-06-30T03:33:06.592Z,15.57
2018-06-30T03:35:35.470Z,15.90
2018-06-30T03:38:03.932Z,15.87
2018-06-30T03:40:32.265Z,14.30
2018-06-30T03:43:00.777Z,15.30
2018-06-30T03:45:29.290Z,13.60
2018-06-30T03:47:57.821Z,16.27
2018-06-30T03:50:26.652Z,14.30
2018-06-30T03:52:55.147Z,16.50
2018-06-30T03:55:23.886Z,13.53
2018-06-30T03:57:52.377Z,15.67
2018-06-30T04:00:21.210Z,17.23
2018-06-30T04:02:49.739Z,18.00
2018-06-30T04:05:18.232Z,15.73
2018-06-30T04:07:46.841Z,16.80
2018-06-30T04:10:15.374Z,14.73
2018-06-30T04:12:44.035Z,15.83
2018-06-30T04:15:12.553Z,17.17
2018-06-30T04:17:41.209Z,15.23
2018-06-30T04:20:09.754Z,15.17
2018-06-30T04:22:38.276Z,17.10
2018-06-30T04:25:06.870Z,16.40
2018-06-30T04:27:35.418Z,14.57
2018-06-30T04:30:04.525Z,15.53
2018-06-30T04:32:33.055Z,15.37
2018-06-30T04:35:02.098Z,15.67
2018-06-30T04:37:30.740Z,18.40
2018-06-30T04:39:59.253Z,16.00
2018-06-30T04:42:27.808Z,18.87
2018-06-30T04:44:56.319Z,14.97
2018-06-30T04:47:24.854Z,15.33
2018-06-30T04:49:53.363Z,16.90
2018-06-30T04:52:21.928Z,14.70
2018-06-30T04:54:50.429Z,14.87
2018-06-30T04:57:19.110Z,15.00
2018-06-30T04:59:47.689Z,18.07
2018-06-30T05:02:16.209Z,18.63
2018-06-30T05:04:44.880Z,18.73
2018-06-30T05:07:13.392Z,14.83
2018-06-30T05:09:41.948Z,15.60
2018-06-30T05:12:10.442Z,14.43
2018-06-30T05:14:38.960Z,14.23
2018-06-30T05:17:07.473Z,13.13
2018-06-30T05:19:36.087Z,18.03
2018-06-30T05:22:04.617Z,19.33
2018-06-30T05:24:33.280Z,15.33
2018-06-30T05:27:01.801Z,15.37
2018-06-30T05:29:30.373Z,14.53
2018-06-30T05:31:58.929Z,16.63
2018-06-30T05:34:28.462Z,17.63
2018-06-30T05:36:57.013Z,17.97
2018-06-30T05:39:25.725Z,17.47
2018-06-30T05:41:54.580Z,16.63
2018-06-30T05:44:23.066Z,18.17
2018-06-30T05:46:51.658Z,18.87
2018-06-30T05:49:20.570Z,15.63
2018-06-30T05:51:49.095Z,17.17
2018-06-30T05:54:17.635Z,16.83
2018-06-30T05:56:46.132Z,16.63
2018-06-30T05:59:14.648Z,15.97
2018-06-30T06:01:43.675Z,15.57
2018-06-30T06:04:12.441Z,14.30
2018-06-30T06:06:40.945Z,17.63
2018-06-30T06:09:11.260Z,18.33
2018-06-30T06:11:39.919Z,19.43
2018-06-30T06:14:08.771Z,14.73
2018-06-30T06:16:37.609Z,16.67
2018-06-30T06:19:07.149Z,15.60
2018-06-30T06:21:35.673Z,17.07
2018-06-30T06:24:04.361Z,18.50
2018-06-30T06:26:32.907Z,15.20
2018-06-30T06:29:01.461Z,17.57
2018-06-30T06:31:29.986Z,15.40
2018-06-30T06:33:58.709Z,14.47
2018-06-30T06:36:27.231Z,16.30
2018-06-30T06:38:55.757Z,16.80
2018-06-30T06:41:24.337Z,18.63
2018-06-30T06:43:53.061Z,18.07
2018-06-30T06:46:21.913Z,17.60
2018-06-30T06:48:50.477Z,17.70
2018-06-30T06:51:18.699Z,15.67
2018-06-30T06:53:47.360Z,17.73
2018-06-30T06:56:15.918Z,17.83
2018-06-30T06:58:44.459Z,16.03
2018-06-30T07:01:13.013Z,15.83
2018-06-30T07:03:41.703Z,17.80
2018-06-30T07:06:10.280Z,14.80
2018-06-30T07:08:39.092Z,18.90
2018-06-30T07:11:07.765Z,15.93
2018-06-30T07:13:38.287Z,15.07
2018-06-30T07:16:07.359Z,15.13
2018-06-30T07:18:37.315Z,15.93
2018-06-30T07:21:06.174Z,17.23
2018-06-30T07:23:35.017Z,16.80
2018-06-30T07:26:03.627Z,16.80
2018-06-30T07:28:32.421Z,16.27
2018-06-30T07:31:00.932Z,13.47
2018-06-30T07:33:29.486Z,17.17
2018-06-30T07:35:57.992Z,16.60
2018-06-30T07:38:26.542Z,15.70
2018-06-30T07:40:55.443Z,15.53
2018-06-30T07:43:24.199Z,18.27
2018-06-30T07:45:52.789Z,17.30
2018-06-30T07:48:21.330Z,16.63
2018-06-30T07:50:50.037Z,17.30
2018-06-30T07:53:18.550Z,18.00
2018-06-30T07:55:47.106Z,18.50
2018-06-30T07:58:15.604Z,16.10
2018-06-30T08:00:44.413Z,16.63
2018-06-30T08:03:12.905Z,17.37
2018-06-30T08:05:41.468Z,15.07
2018-06-30T08:08:10.314Z,16.47
2018-06-30T08:10:38.872Z,15.40
2018-06-30T08:13:07.903Z,17.80
2018-06-30T08:15:36.451Z,17.90
2018-06-30T08:18:04.965Z,19.73
2018-06-30T08:20:33.478Z,20.40
2018-06-30T08:23:02.035Z,18.93
2018-06-30T08:25:30.616Z,19.43
2018-06-30T08:27:59.216Z,15.43
2018-06-30T08:30:27.998Z,16.10
2018-06-30T08:32:56.695Z,17.23
2018-06-30T08:35:25.432Z,14.73
2018-06-30T08:37:53.998Z,15.93
2018-06-30T08:40:22.584Z,16.10
2018-06-30T08:42:51.165Z,14.70
2018-06-30T08:45:19.666Z,14.10
2018-06-30T08:47:48.260Z,12.47
2018-06-30T08:50:16.776Z,13.67
2018-06-30T08:52:45.329Z,13.77
2018-06-30T08:55:13.882Z,13.03
2018-06-30T08:57:42.627Z,12.07
2018-06-30T09:00:11.190Z,12.17
2018-06-30T09:02:39.685Z,12.40
2018-06-30T09:05:08.219Z,12.87
2018-06-30T09:07:36.767Z,12.53
2018-06-30T09:10:05.957Z,11.37
2018-06-30T09:12:34.570Z,12.23
2018-06-30T09:15:03.508Z,10.40
2018-06-30T09:17:32.011Z,10.87
2018-06-30T09:20:00.537Z,11.83
2018-06-30T09:22:29.072Z,13.13
2018-06-30T09:24:57.633Z,13.30
2018-06-30T09:27:26.216Z,11.80
2018-06-30T09:29:54.899Z,12.37
2018-06-30T09:32:23.428Z,12.57
2018-06-30T09:34:51.984Z,10.38
2018-06-30T09:37:20.545Z,10.37
2018-06-30T09:39:49.065Z,9.67
2018-06-30T09:42:17.706Z,12.33
2018-06-30T09:44:46.267Z,11.00
2018-06-30T09:47:14.740Z,10.00
2018-06-30T09:49:43.241Z,9.23
2018-06-30T09:52:11.780Z,10.40
2018-06-30T09:54:40.003Z,9.80
2018-06-30T09:57:09.070Z,9.93
2018-06-30T09:59:37.717Z,8.60
2018-06-30T10:02:06.264Z,10.77
2018-06-30T10:04:34.965Z,9.73
2018-06-30T10:07:03.699Z,11.70
2018-06-30T10:09:32.324Z,10.80
2018-06-30T10:12:01.035Z,10.50
2018-06-30T10:14:29.614Z,13.33
2018-06-30T10:16:58.090Z,12.43
2018-06-30T10:19:26.661Z,10.27
2018-06-30T10:21:55.233Z,12.73
2018-06-30T10:24:23.798Z,11.83
2018-06-30T10:26:53.209Z,13.00
2018-06-30T10:29:21.707Z,12.00
2018-06-30T10:31:50.505Z,11.17
2018-06-30T10:34:19.094Z,12.40
2018-06-30T10:36:48.341Z,10.57
2018-06-30T10:39:17.045Z,12.40
2018-06-30T10:41:45.643Z,13.00
2018-06-30T10:44:14.147Z,11.87
2018-06-30T10:46:43.415Z,12.47
2018-06-30T10:49:11.999Z,11.23
2018-06-30T10:51:40.535Z,10.77
2018-06-30T10:54:09.155Z,12.07
2018-06-30T10:56:37.721Z,15.10
2018-06-30T10:59:06.554Z,12.77
2018-06-30T11:01:35.119Z,11.90
2018-06-30T11:04:03.754Z,12.57
2018-06-30T11:06:32.328Z,12.23
2018-06-30T11:09:00.903Z,12.70
2018-06-30T11:11:29.496Z,12.57
2018-06-30T11:13:58.063Z,14.80
2018-06-30T11:16:26.364Z,13.53
2018-06-30T11:18:54.931Z,14.20
2018-06-30T11:21:23.563Z,11.20
2018-06-30T11:23:52.246Z,13.10
2018-06-30T11:26:20.915Z,12.30
2018-06-30T11:28:49.616Z,12.53
2018-06-30T11:31:18.466Z,11.60
2018-06-30T11:33:47.241Z,12.37
2018-06-30T11:36:15.755Z,12.30
2018-06-30T11:38:44.298Z,11.20
2018-06-30T11:41:12.898Z,9.83
2018-06-30T11:43:41.488Z,10.97
2018-06-30T11:46:10.100Z,10.60
2018-06-30T11:48:38.648Z,10.30
2018-06-30T11:51:07.302Z,10.47
2018-06-30T11:53:36.136Z,13.90
2018-06-30T11:56:04.831Z,11.23
2018-06-30T11:58:33.530Z,12.03
2018-06-30T12:01:02.229Z,12.27
2018-06-30T12:03:30.826Z,13.20
2018-06-30T12:06:00.220Z,13.10
2018-06-30T12:08:29.007Z,13.23
2018-06-30T12:10:58.036Z,12.93
2018-06-30T12:13:26.544Z,11.80
2018-06-30T12:15:55.335Z,12.97
2018-06-30T12:18:23.866Z,11.50
2018-06-30T12:20:52.395Z,10.80
2018-06-30T12:23:20.894Z,11.70
2018-06-30T12:25:49.421Z,11.07
2018-06-30T12:28:18.529Z,11.07
2018-06-30T12:30:47.327Z,10.53
2018-06-30T12:33:15.961Z,12.37
2018-06-30T12:35:44.538Z,8.90
2018-06-30T12:38:13.676Z,10.13
2018-06-30T12:40:42.202Z,10.10
2018-06-30T12:43:10.769Z,10.00
2018-06-30T12:45:39.299Z,10.97
2018-06-30T12:48:08.386Z,10.23
2018-06-30T12:50:36.729Z,11.47
2018-06-30T12:53:05.800Z,10.33
2018-06-30T12:55:34.349Z,13.13
2018-06-30T12:58:02.885Z,12.47
2018-06-30T13:00:31.573Z,10.10
2018-06-30T13:03:00.170Z,11.60
2018-06-30T13:05:28.528Z,12.30
2018-06-30T13:07:57.148Z,11.93
2018-06-30T13:10:25.965Z,11.00
2018-06-30T13:12:54.653Z,11.03
2018-06-30T13:15:23.197Z,8.90
2018-06-30T13:17:52.021Z,10.33
2018-06-30T13:20:20.792Z,10.47
2018-06-30T13:22:50.386Z,10.57
2018-06-30T13:25:18.982Z,11.03
2018-06-30T13:27:47.506Z,8.93
2018-06-30T13:30:16.039Z,11.03
2018-06-30T13:32:44.956Z,11.07
2018-06-30T13:35:13.872Z,10.07
2018-06-30T13:37:42.461Z,9.33
2018-06-30T13:40:11.363Z,10.40
2018-06-30T13:42:39.545Z,8.77
2018-06-30T13:45:09.537Z,8.90
2018-06-30T13:47:38.160Z,9.37
2018-06-30T13:50:07.657Z,9.00
2018-06-30T13:52:36.691Z,8.30
2018-06-30T13:55:05.595Z,6.93
2018-06-30T13:57:34.492Z,8.80
2018-06-30T14:00:03.343Z,8.17
2018-06-30T14:02:31.890Z,9.97
2018-06-30T14:05:00.414Z,8.47
2018-06-30T14:07:29.068Z,8.77
2018-06-30T14:09:57.796Z,6.70
2018-06-30T14:12:27.376Z,8.43
2018-06-30T14:14:55.924Z,8.67
2018-06-30T14:17:24.530Z,7.83
2018-06-30T14:19:53.029Z,8.03
2018-06-30T14:22:21.620Z,7.90
2018-06-30T14:24:50.120Z,8.03
2018-06-30T14:27:20.202Z,7.70
2018-06-30T14:29:48.739Z,6.50
2018-06-30T14:32:16.994Z,8.17
2018-06-30T14:34:45.540Z,7.23
2018-06-30T14:37:14.538Z,7.17
2018-06-30T14:39:43.135Z,7.90
2018-06-30T14:42:11.681Z,6.40
2018-06-30T14:44:40.216Z,7.40
2018-06-30T14:47:08.791Z,6.70
2018-06-30T14:49:37.444Z,6.33
2018-06-30T14:52:06.043Z,7.37
2018-06-30T14:54:34.848Z,6.67
2018-06-30T14:57:03.432Z,7.10
2018-06-30T14:59:32.236Z,6.73
2018-06-30T15:02:00.792Z,6.20
2018-06-30T15:04:29.411Z,5.07
2018-06-30T15:06:57.978Z,5.57
2018-06-30T15:09:26.522Z,5.63
2018-06-30T15:11:55.145Z,6.00
2018-06-30T15:14:24.117Z,5.40
2018-06-30T15:16:53.019Z,5.10
2018-06-30T15:19:21.549Z,4.87
2018-06-30T15:21:50.408Z,5.07
2018-06-30T15:24:19.021Z,5.87
2018-06-30T15:26:47.596Z,5.87
2018-06-30T15:29:16.420Z,5.50
2018-06-30T15:31:44.991Z,5.37
2018-06-30T15:34:13.695Z,5.00
2018-06-30T15:36:42.460Z,4.97
2018-06-30T15:39:11.731Z,4.53
2018-06-30T15:41:40.365Z,4.63
2018-06-30T15:44:08.978Z,4.80
2018-06-30T15:46:37.591Z,4.27
2018-06-30T15:49:06.561Z,4.33
2018-06-30T15:51:35.369Z,4.37
2018-06-30T15:54:04.424Z,4.00
2018-06-30T15:56:32.991Z,3.67
2018-06-30T15:59:01.522Z,3.97
2018-06-30T16:01:30.403Z,3.80
2018-06-30T16:03:59.095Z,4.00
2018-06-30T16:06:27.623Z,3.70
2018-06-30T16:08:56.173Z,3.60
2018-06-30T16:11:24.710Z,3.50
2018-06-30T16:13:53.348Z,3.40
2018-06-30T16:16:22.249Z,3.30
2018-06-30T16:18:51.187Z,3.00
2018-06-30T16:21:19.864Z,2.90
2018-06-30T16:23:48.378Z,3.00
2018-06-30T16:26:16.925Z,3.20
2018-06-30T16:28:46.069Z,3.13
2018-06-30T16:31:14.560Z,3.10
2018-06-30T16:33:43.328Z,3.03
2018-06-30T16:36:11.862Z,3.07
2018-06-30T16:38:40.734Z,3.13
2018-06-30T16:41:08.948Z,2.87
2018-06-30T16:43:37.437Z,2.60
2018-06-30T16:46:06.211Z,3.00
2018-06-30T16:48:34.984Z,3.20
2018-06-30T16:51:03.586Z,3.10
2018-06-30T16:53:32.194Z,3.03
2018-06-30T16:56:00.860Z,3.03
2018-06-30T16:58:29.491Z,2.97
2018-06-30T17:00:57.706Z,2.70
2018-06-30T17:03:26.296Z,2.63
2018-06-30T17:05:54.834Z,2.70
2018-06-30T17:08:23.424Z,2.40
2018-06-30T17:10:51.972Z,2.80
2018-06-30T17:13:20.467Z,2.53
2018-06-30T17:15:48.995Z,2.63
2018-06-30T17:18:17.646Z,2.43
2018-06-30T17:20:46.314Z,2.73
2018-06-30T17:23:14.900Z,2.67
2018-06-30T17:25:43.798Z,2.73
2018-06-30T17:28:12.295Z,2.90
2018-06-30T17:30:40.916Z,2.83
2018-06-30T17:33:09.493Z,3.00
2018-06-30T17:35:38.049Z,2.70
2018-06-30T17:38:07.267Z,2.97
2018-06-30T17:40:35.850Z,2.90
2018-06-30T17:43:04.374Z,2.43
2018-06-30T17:45:33.074Z,2.57
2018-06-30T17:48:01.791Z,2.70
2018-06-30T17:53:11.052Z,2.63
2018-06-30T17:55:39.737Z,2.57
2018-06-30T17:58:08.290Z,2.50
2018-06-30T18:00:36.904Z,2.30
2018-06-30T18:03:06.075Z,2.57
2018-06-30T18:05:34.615Z,2.50
2018-06-30T18:08:03.115Z,2.67
2018-06-30T18:10:31.360Z,2.73
2018-06-30T18:12:59.942Z,2.40
2018-06-30T18:15:28.468Z,2.30
2018-06-30T18:17:56.995Z,2.40
2018-06-30T18:20:25.604Z,2.27
2018-06-30T18:22:54.091Z,2.30
2018-06-30T18:25:22.664Z,2.00
2018-06-30T18:27:50.848Z,2.40
2018-06-30T18:30:19.366Z,2.33
2018-06-30T18:32:48.253Z,2.20
2018-06-30T18:35:16.882Z,2.47
2018-06-30T18:37:45.431Z,2.10
2018-06-30T18:40:14.205Z,2.10
2018-06-30T18:42:42.894Z,2.27
2018-06-30T18:45:11.412Z,2.40
2018-06-30T18:47:40.117Z,2.10
2018-06-30T18:50:08.636Z,2.50
2018-06-30T18:52:37.223Z,2.10
2018-06-30T18:55:06.184Z,2.10
2018-06-30T18:57:35.094Z,2.47
2018-06-30T19:00:03.658Z,2.77
2018-06-30T19:02:32.170Z,2.43
2018-06-30T19:05:00.754Z,2.47
2018-06-30T19:07:29.268Z,2.50
2018-06-30T19:09:57.852Z,2.50
2018-06-30T19:12:26.430Z,2.47
2018-06-30T19:14:55.190Z,2.60
2018-06-30T19:17:23.887Z,2.47
2018-06-30T19:19:52.757Z,2.60
2018-06-30T19:22:21.269Z,2.53
2018-06-30T19:24:49.902Z,2.70
2018-06-30T19:27:18.604Z,2.30
2018-06-30T19:29:47.309Z,2.63
2018-06-30T19:32:15.891Z,2.60
2018-06-30T19:34:44.471Z,2.50
2018-06-30T19:37:13.018Z,2.50
2018-06-30T19:39:41.559Z,2.70
2018-06-30T19:42:10.501Z,2.90
2018-06-30T19:44:38.970Z,2.30
2018-06-30T19:47:07.782Z,2.43
2018-06-30T19:49:36.312Z,2.70
2018-06-30T19:52:04.885Z,2.50
2018-06-30T19:54:33.663Z,2.73
2018-06-30T19:57:02.194Z,2.60
2018-06-30T19:59:30.696Z,2.53
2018-06-30T20:01:59.226Z,2.47
2018-06-30T20:04:28.256Z,2.57
2018-06-30T20:06:56.756Z,2.93
2018-06-30T20:09:25.426Z,2.47
2018-06-30T20:11:53.964Z,2.80
2018-06-30T20:14:22.709Z,2.70
2018-06-30T20:16:51.224Z,2.80
2018-06-30T20:19:19.793Z,2.60
2018-06-30T20:21:48.421Z,2.20
2018-06-30T20:24:17.075Z,2.53
2018-06-30T20:26:45.479Z,2.70
2018-06-30T20:29:14.162Z,2.63
2018-06-30T20:31:43.296Z,2.17
2018-06-30T20:34:11.833Z,2.23
2018-06-30T20:36:40.305Z,2.47
2018-06-30T20:39:10.229Z,2.30
2018-06-30T20:41:39.133Z,2.37
2018-06-30T20:44:10.401Z,2.23
2018-06-30T20:46:39.264Z,2.10
2018-06-30T20:49:07.888Z,2.00
2018-06-30T20:51:36.402Z,2.20
2018-06-30T20:54:04.987Z,2.33
2018-06-30T20:56:33.536Z,2.30
2018-06-30T20:59:02.122Z,2.27
2018-06-30T21:01:30.609Z,1.87
2018-06-30T21:03:59.172Z,2.27
2018-06-30T21:06:27.703Z,2.10
2018-06-30T21:08:56.197Z,2.20
2018-06-30T21:11:24.872Z,2.00
2018-06-30T21:13:53.410Z,1.80
2018-06-30T21:16:21.932Z,1.80
2018-06-30T21:18:50.464Z,2.00
2018-06-30T21:21:18.991Z,1.80
2018-06-30T21:23:47.557Z,1.80
2018-06-30T21:26:16.080Z,1.80
2018-06-30T21:28:44.574Z,2.20
2018-06-30T21:31:13.425Z,1.63
2018-06-30T21:33:42.011Z,1.83
2018-06-30T21:36:10.524Z,1.90
2018-06-30T21:38:38.861Z,1.87
2018-06-30T21:41:07.739Z,1.80
2018-06-30T21:43:36.881Z,1.70
2018-06-30T21:46:05.857Z,1.67
2018-06-30T21:48:34.543Z,1.40
2018-06-30T21:51:03.063Z,1.80
2018-06-30T21:53:31.617Z,1.60
2018-06-30T21:56:00.264Z,1.53
2018-06-30T21:58:28.956Z,1.50
2018-06-30T22:01:31.995Z,1.50
2018-06-30T22:04:00.813Z,1.57
2018-06-30T22:06:29.375Z,1.60
2018-06-30T22:08:58.011Z,1.27
2018-06-30T22:11:26.593Z,1.30
2018-06-30T22:13:55.181Z,1.60
2018-06-30T22:16:23.881Z,1.60
2018-06-30T22:18:53.050Z,1.50
2018-06-30T22:21:21.569Z,1.50
2018-06-30T22:23:50.256Z,1.50
2018-06-30T22:26:18.827Z,1.50
2018-06-30T22:28:48.459Z,1.30
2018-06-30T22:31:16.605Z,1.30
2018-06-30T22:33:45.131Z,1.47
2018-06-30T22:36:14.082Z,1.80
2018-06-30T22:38:42.590Z,1.30
2018-06-30T22:41:10.762Z,1.67
2018-06-30T22:43:39.292Z,1.30
2018-06-30T22:46:08.354Z,1.40
2018-06-30T22:48:36.895Z,1.40
2018-06-30T22:51:05.475Z,1.40
2018-06-30T22:53:34.187Z,1.60
2018-06-30T22:56:02.774Z,1.40
2018-06-30T22:58:31.496Z,1.23
2018-06-30T23:01:00.171Z,1.33
2018-06-30T23:03:28.856Z,1.43
2018-06-30T23:05:57.358Z,1.40
2018-06-30T23:08:26.233Z,1.23
2018-06-30T23:10:55.123Z,1.20
2018-06-30T23:13:24.080Z,1.30
2018-06-30T23:15:53.390Z,1.13
2018-06-30T23:18:21.997Z,1.30
2018-06-30T23:20:50.595Z,1.30
2018-06-30T23:23:19.101Z,1.30
2018-06-30T23:25:47.610Z,1.10
2018-06-30T23:28:16.146Z,1.10
2018-06-30T23:30:44.727Z,1.00
2018-06-30T23:33:13.440Z,1.20
2018-06-30T23:35:41.920Z,1.43
2018-06-30T23:38:10.424Z,1.17
2018-06-30T23:40:39.127Z,1.10
2018-06-30T23:43:07.843Z,1.10
2018-06-30T23:45:36.364Z,1.07
2018-06-30T23:48:05.473Z,1.10
2018-06-30T23:50:34.395Z,1.10
2018-06-30T23:53:03.959Z,1.13
2018-06-30T23:55:32.697Z,0.90
2018-06-30T23:58:01.603Z,1.00
